sensor_id;sensor_type;location;lat;lon;timestamp;pressure;altitude;pressure_sealevel;temperature;humidity
9746;BME280;4912;50.836;12.958;2023-05-07T00:01:30;98082.25;;;14.60;75.27
9746;BME280;4912;50.836;12.958;2023-05-07T00:04:01;98090.09;;;14.61;74.87
9746;BME280;4912;50.836;12.958;2023-05-07T00:06:31;98083.00;;;14.60;74.85
9746;BME280;4912;50.836;12.958;2023-05-07T00:09:02;98081.75;;;14.61;75.20
9746;BME280;4912;50.836;12.958;2023-05-07T00:11:35;98079.47;;;14.60;75.52
9746;BME280;4912;50.836;12.958;2023-05-07T00:14:05;98083.75;;;14.61;75.17
9746;BME280;4912;50.836;12.958;2023-05-07T00:16:35;98072.91;;;14.63;75.57
9746;BME280;4912;50.836;12.958;2023-05-07T00:19:06;98080.50;;;14.62;74.65
9746;BME280;4912;50.836;12.958;2023-05-07T00:21:36;98082.50;;;14.62;75.40
9746;BME280;4912;50.836;12.958;2023-05-07T00:24:07;98081.53;;;14.65;75.47
9746;BME280;4912;50.836;12.958;2023-05-07T00:26:39;98077.50;;;14.66;74.62
9746;BME280;4912;50.836;12.958;2023-05-07T00:29:10;98089.91;;;14.65;74.13
9746;BME280;4912;50.836;12.958;2023-05-07T00:31:40;98086.34;;;14.64;73.95
9746;BME280;4912;50.836;12.958;2023-05-07T00:34:11;98081.75;;;14.61;73.53
9746;BME280;4912;50.836;12.958;2023-05-07T00:36:41;98083.28;;;14.62;74.13
9746;BME280;4912;50.836;12.958;2023-05-07T00:39:11;98080.22;;;14.60;73.37
9746;BME280;4912;50.836;12.958;2023-05-07T00:41:44;98069.81;;;14.61;73.69
9746;BME280;4912;50.836;12.958;2023-05-07T00:44:14;98076.69;;;14.60;72.92
9746;BME280;4912;50.836;12.958;2023-05-07T00:46:45;98076.69;;;14.60;70.65
9746;BME280;4912;50.836;12.958;2023-05-07T00:49:16;98080.66;;;14.53;72.13
9746;BME280;4912;50.836;12.958;2023-05-07T00:51:48;98085.44;;;14.53;72.13
9746;BME280;4912;50.836;12.958;2023-05-07T00:54:19;98076.63;;;14.54;72.17
9746;BME280;4912;50.836;12.958;2023-05-07T00:56:53;98076.31;;;14.52;72.80
9746;BME280;4912;50.836;12.958;2023-05-07T00:59:24;98080.34;;;14.51;72.79
9746;BME280;4912;50.836;12.958;2023-05-07T01:01:54;98077.09;;;14.53;72.90
9746;BME280;4912;50.836;12.958;2023-05-07T01:04:25;98079.88;;;14.53;73.08
9746;BME280;4912;50.836;12.958;2023-05-07T01:06:56;98064.34;;;14.46;72.81
9746;BME280;4912;50.836;12.958;2023-05-07T01:09:29;98071.72;;;14.49;73.50
9746;BME280;4912;50.836;12.958;2023-05-07T01:12:02;98080.06;;;14.49;73.76
9746;BME280;4912;50.836;12.958;2023-05-07T01:14:33;98076.53;;;14.49;73.88
9746;BME280;4912;50.836;12.958;2023-05-07T01:17:04;98088.16;;;14.47;74.70
9746;BME280;4912;50.836;12.958;2023-05-07T01:19:35;98089.88;;;14.45;75.33
9746;BME280;4912;50.836;12.958;2023-05-07T01:22:07;98084.31;;;14.45;76.08
9746;BME280;4912;50.836;12.958;2023-05-07T01:24:49;98090.38;;;14.43;76.54
9746;BME280;4912;50.836;12.958;2023-05-07T01:27:20;98082.78;;;14.44;76.93
9746;BME280;4912;50.836;12.958;2023-05-07T01:29:51;98085.31;;;14.42;76.73
9746;BME280;4912;50.836;12.958;2023-05-07T01:32:24;98079.75;;;14.42;77.05
9746;BME280;4912;50.836;12.958;2023-05-07T01:35:04;98081.28;;;14.43;77.31
9746;BME280;4912;50.836;12.958;2023-05-07T01:37:37;98071.88;;;14.40;77.43
9746;BME280;4912;50.836;12.958;2023-05-07T01:40:13;98072.88;;;14.37;77.40
9746;BME280;4912;50.836;12.958;2023-05-07T01:42:47;98080.41;;;14.37;77.57
9746;BME280;4912;50.836;12.958;2023-05-07T01:45:17;98073.78;;;14.34;77.91
9746;BME280;4912;50.836;12.958;2023-05-07T01:47:48;98076.03;;;14.30;77.79
9746;BME280;4912;50.836;12.958;2023-05-07T01:50:19;98072.19;;;14.27;77.71
9746;BME280;4912;50.836;12.958;2023-05-07T01:52:52;98073.16;;;14.24;77.89
9746;BME280;4912;50.836;12.958;2023-05-07T01:55:26;98084.78;;;14.23;78.31
9746;BME280;4912;50.836;12.958;2023-05-07T01:57:59;98079.97;;;14.23;78.16
9746;BME280;4912;50.836;12.958;2023-05-07T02:00:29;98085.72;;;14.20;77.69
9746;BME280;4912;50.836;12.958;2023-05-07T02:03:00;98085.94;;;14.16;77.96
9746;BME280;4912;50.836;12.958;2023-05-07T02:05:38;98081.84;;;14.12;77.82
9746;BME280;4912;50.836;12.958;2023-05-07T02:08:16;98083.78;;;14.06;78.08
9746;BME280;4912;50.836;12.958;2023-05-07T02:10:49;98091.38;;;14.05;78.52
9746;BME280;4912;50.836;12.958;2023-05-07T02:13:20;98089.06;;;14.04;78.87
9746;BME280;4912;50.836;12.958;2023-05-07T02:15:51;98091.06;;;14.03;78.82
9746;BME280;4912;50.836;12.958;2023-05-07T02:18:23;98090.81;;;14.01;78.67
9746;BME280;4912;50.836;12.958;2023-05-07T02:20:54;98094.84;;;14.00;79.16
9746;BME280;4912;50.836;12.958;2023-05-07T02:23:24;98105.19;;;14.00;79.29
9746;BME280;4912;50.836;12.958;2023-05-07T02:25:57;98097.63;;;14.00;78.84
9746;BME280;4912;50.836;12.958;2023-05-07T02:28:27;98100.59;;;13.97;78.35
9746;BME280;4912;50.836;12.958;2023-05-07T02:31:02;98103.28;;;13.91;78.27
9746;BME280;4912;50.836;12.958;2023-05-07T02:33:33;98101.19;;;13.86;78.65
9746;BME280;4912;50.836;12.958;2023-05-07T02:36:07;98096.41;;;13.86;78.98
9746;BME280;4912;50.836;12.958;2023-05-07T02:38:59;98091.03;;;13.83;79.13
9746;BME280;4912;50.836;12.958;2023-05-07T02:41:32;98087.88;;;13.75;78.75
9746;BME280;4912;50.836;12.958;2023-05-07T02:44:02;98095.47;;;13.75;78.86
9746;BME280;4912;50.836;12.958;2023-05-07T02:46:33;98095.16;;;13.73;79.42
9746;BME280;4912;50.836;12.958;2023-05-07T02:49:07;98100.06;;;13.78;79.95
9746;BME280;4912;50.836;12.958;2023-05-07T02:51:38;98099.47;;;13.74;79.36
9746;BME280;4912;50.836;12.958;2023-05-07T02:54:12;98095.16;;;13.73;79.14
9746;BME280;4912;50.836;12.958;2023-05-07T02:56:45;98094.22;;;13.76;80.03
9746;BME280;4912;50.836;12.958;2023-05-07T02:59:16;98099.78;;;13.76;79.56
9746;BME280;4912;50.836;12.958;2023-05-07T03:01:48;98104.88;;;13.77;80.13
9746;BME280;4912;50.836;12.958;2023-05-07T03:04:18;98101.31;;;13.77;80.24
9746;BME280;4912;50.836;12.958;2023-05-07T03:06:49;98108.41;;;13.78;79.87
9746;BME280;4912;50.836;12.958;2023-05-07T03:09:19;98112.16;;;13.75;79.86
9746;BME280;4912;50.836;12.958;2023-05-07T03:11:52;98103.50;;;13.73;79.67
9746;BME280;4912;50.836;12.958;2023-05-07T03:14:22;98098.94;;;13.70;79.15
9746;BME280;4912;50.836;12.958;2023-05-07T03:16:53;98097.09;;;13.67;79.84
9746;BME280;4912;50.836;12.958;2023-05-07T03:19:23;98101.72;;;13.70;80.25
9746;BME280;4912;50.836;12.958;2023-05-07T03:21:54;98090.88;;;13.72;80.04
9746;BME280;4912;50.836;12.958;2023-05-07T03:24:24;98091.53;;;13.67;79.90
9746;BME280;4912;50.836;12.958;2023-05-07T03:26:57;98099.13;;;13.66;78.99
9746;BME280;4912;50.836;12.958;2023-05-07T03:29:28;98094.03;;;13.65;79.64
9746;BME280;4912;50.836;12.958;2023-05-07T03:31:58;98095.75;;;13.62;79.36
9746;BME280;4912;50.836;12.958;2023-05-07T03:34:28;98093.97;;;13.59;79.51
9746;BME280;4912;50.836;12.958;2023-05-07T03:36:59;98098.19;;;13.55;79.75
9746;BME280;4912;50.836;12.958;2023-05-07T03:39:32;98097.97;;;13.58;80.26
9746;BME280;4912;50.836;12.958;2023-05-07T03:42:05;98107.56;;;13.57;79.87
9746;BME280;4912;50.836;12.958;2023-05-07T03:44:37;98099.91;;;13.52;80.05
9746;BME280;4912;50.836;12.958;2023-05-07T03:47:07;98104.69;;;13.51;80.75
9746;BME280;4912;50.836;12.958;2023-05-07T03:49:38;98110.81;;;13.56;80.29
9746;BME280;4912;50.836;12.958;2023-05-07T03:52:08;98120.22;;;13.58;80.50
9746;BME280;4912;50.836;12.958;2023-05-07T03:54:38;98118.50;;;13.61;80.21
9746;BME280;4912;50.836;12.958;2023-05-07T03:57:14;98112.09;;;13.55;80.78
9746;BME280;4912;50.836;12.958;2023-05-07T03:59:44;98120.03;;;13.62;80.82
9746;BME280;4912;50.836;12.958;2023-05-07T04:02:14;98124.16;;;13.66;80.80
9746;BME280;4912;50.836;12.958;2023-05-07T04:04:45;98130.47;;;13.67;80.83
9746;BME280;4912;50.836;12.958;2023-05-07T04:07:16;98125.66;;;13.67;80.45
9746;BME280;4912;50.836;12.958;2023-05-07T04:09:49;98130.00;;;13.68;80.19
9746;BME280;4912;50.836;12.958;2023-05-07T04:12:22;98128.19;;;13.65;80.39
9746;BME280;4912;50.836;12.958;2023-05-07T04:14:52;98124.16;;;13.66;80.71
9746;BME280;4912;50.836;12.958;2023-05-07T04:17:23;98134.22;;;13.64;80.28
9746;BME280;4912;50.836;12.958;2023-05-07T04:19:53;98137.28;;;13.66;80.81
9746;BME280;4912;50.836;12.958;2023-05-07T04:22:25;98125.97;;;13.69;80.73
9746;BME280;4912;50.836;12.958;2023-05-07T04:24:55;98116.28;;;13.65;80.12
9746;BME280;4912;50.836;12.958;2023-05-07T04:27:29;98121.84;;;13.65;80.20
9746;BME280;4912;50.836;12.958;2023-05-07T04:29:59;98129.34;;;13.59;79.88
9746;BME280;4912;50.836;12.958;2023-05-07T04:32:34;98131.34;;;13.58;79.93
9746;BME280;4912;50.836;12.958;2023-05-07T04:35:05;98129.50;;;13.55;80.04
9746;BME280;4912;50.836;12.958;2023-05-07T04:37:36;98130.00;;;13.53;80.11
9746;BME280;4912;50.836;12.958;2023-05-07T04:40:07;98122.91;;;13.52;80.55
9746;BME280;4912;50.836;12.958;2023-05-07T04:42:41;98122.06;;;13.46;79.59
9746;BME280;4912;50.836;12.958;2023-05-07T04:45:11;98121.75;;;13.44;79.95
9746;BME280;4912;50.836;12.958;2023-05-07T04:47:44;98126.16;;;13.51;81.28
9746;BME280;4912;50.836;12.958;2023-05-07T04:50:14;98137.59;;;13.53;80.31
9746;BME280;4912;50.836;12.958;2023-05-07T04:52:47;98135.56;;;13.53;80.75
9746;BME280;4912;50.836;12.958;2023-05-07T04:55:18;98139.91;;;13.55;80.61
9746;BME280;4912;50.836;12.958;2023-05-07T04:57:51;98143.22;;;13.59;81.36
9746;BME280;4912;50.836;12.958;2023-05-07T05:00:23;98147.16;;;13.67;81.09
9746;BME280;4912;50.836;12.958;2023-05-07T05:02:56;98149.53;;;13.74;80.76
9746;BME280;4912;50.836;12.958;2023-05-07T05:05:28;98150.59;;;13.76;80.00
9746;BME280;4912;50.836;12.958;2023-05-07T05:07:59;98149.84;;;13.76;79.51
9746;BME280;4912;50.836;12.958;2023-05-07T05:10:29;98154.34;;;13.73;79.27
9746;BME280;4912;50.836;12.958;2023-05-07T05:13:02;98151.47;;;13.68;78.59
9746;BME280;4912;50.836;12.958;2023-05-07T05:15:32;98157.53;;;13.66;78.95
9746;BME280;4912;50.836;12.958;2023-05-07T05:18:02;98159.25;;;13.64;79.12
9746;BME280;4912;50.836;12.958;2023-05-07T05:20:33;98153.38;;;13.62;78.97
9746;BME280;4912;50.836;12.958;2023-05-07T05:23:05;98161.47;;;13.60;79.79
9746;BME280;4912;50.836;12.958;2023-05-07T05:25:37;98162.50;;;13.62;79.71
9746;BME280;4912;50.836;12.958;2023-05-07T05:28:12;98167.38;;;13.67;78.65
9746;BME280;4912;50.836;12.958;2023-05-07T05:30:43;98169.69;;;13.69;78.96
9746;BME280;4912;50.836;12.958;2023-05-07T05:33:13;98166.44;;;13.70;78.53
9746;BME280;4912;50.836;12.958;2023-05-07T05:35:43;98167.00;;;13.74;78.73
9746;BME280;4912;50.836;12.958;2023-05-07T05:38:14;98170.56;;;13.75;78.46
9746;BME280;4912;50.836;12.958;2023-05-07T05:40:44;98175.16;;;13.78;78.70
9746;BME280;4912;50.836;12.958;2023-05-07T05:43:17;98174.94;;;13.67;77.90
9746;BME280;4912;50.836;12.958;2023-05-07T05:45:48;98180.81;;;13.69;77.52
9746;BME280;4912;50.836;12.958;2023-05-07T05:48:18;98180.50;;;13.67;78.16
9746;BME280;4912;50.836;12.958;2023-05-07T05:50:49;98174.94;;;13.67;78.17
9746;BME280;4912;50.836;12.958;2023-05-07T05:53:19;98190.22;;;13.71;78.07
9746;BME280;4912;50.836;12.958;2023-05-07T05:55:50;98184.28;;;13.64;77.96
9746;BME280;4912;50.836;12.958;2023-05-07T05:58:24;98196.47;;;13.66;77.71
9746;BME280;4912;50.836;12.958;2023-05-07T06:00:59;98204.19;;;13.47;77.97
9746;BME280;4912;50.836;12.958;2023-05-07T06:03:30;98196.91;;;13.50;78.21
9746;BME280;4912;50.836;12.958;2023-05-07T06:06:04;98209.94;;;13.44;78.35
9746;BME280;4912;50.836;12.958;2023-05-07T06:08:35;98208.78;;;13.36;78.47
9746;BME280;4912;50.836;12.958;2023-05-07T06:11:05;98202.34;;;13.30;78.92
9746;BME280;4912;50.836;12.958;2023-05-07T06:13:41;98206.13;;;13.41;80.13
9746;BME280;4912;50.836;12.958;2023-05-07T06:16:11;98192.03;;;13.60;78.76
9746;BME280;4912;50.836;12.958;2023-05-07T06:18:42;98193.78;;;13.72;77.78
9746;BME280;4912;50.836;12.958;2023-05-07T06:21:14;98195.69;;;13.66;76.44
9746;BME280;4912;50.836;12.958;2023-05-07T06:23:45;98198.47;;;13.66;77.27
9746;BME280;4912;50.836;12.958;2023-05-07T06:26:15;98202.31;;;13.83;75.83
9746;BME280;4912;50.836;12.958;2023-05-07T06:28:55;98202.75;;;13.96;75.17
9746;BME280;4912;50.836;12.958;2023-05-07T06:31:28;98203.44;;;13.91;74.38
9746;BME280;4912;50.836;12.958;2023-05-07T06:34:05;98204.19;;;13.91;74.02
9746;BME280;4912;50.836;12.958;2023-05-07T06:36:37;98211.00;;;13.90;74.07
9746;BME280;4912;50.836;12.958;2023-05-07T06:39:36;98217.34;;;13.91;74.85
9746;BME280;4912;50.836;12.958;2023-05-07T06:42:07;98215.63;;;13.79;74.85
9746;BME280;4912;50.836;12.958;2023-05-07T06:44:43;98217.06;;;13.89;75.02
9746;BME280;4912;50.836;12.958;2023-05-07T06:47:15;98217.06;;;13.89;74.95
9746;BME280;4912;50.836;12.958;2023-05-07T06:49:50;98219.94;;;13.80;74.15
9746;BME280;4912;50.836;12.958;2023-05-07T06:52:24;98211.31;;;13.78;73.11
9746;BME280;4912;50.836;12.958;2023-05-07T06:54:54;98223.97;;;13.79;73.34
9746;BME280;4912;50.836;12.958;2023-05-07T06:57:25;98224.56;;;13.83;73.07
9746;BME280;4912;50.836;12.958;2023-05-07T06:59:58;98223.69;;;13.77;72.97
9746;BME280;4912;50.836;12.958;2023-05-07T07:02:31;98233.34;;;13.67;73.05
9746;BME280;4912;50.836;12.958;2023-05-07T07:05:01;98223.19;;;13.78;74.19
9746;BME280;4912;50.836;12.958;2023-05-07T07:07:31;98227.53;;;13.94;72.55
9746;BME280;4912;50.836;12.958;2023-05-07T07:10:02;98229.72;;;14.05;71.90
9746;BME280;4912;50.836;12.958;2023-05-07T07:12:33;98226.47;;;14.06;71.00
9746;BME280;4912;50.836;12.958;2023-05-07T07:15:07;98225.31;;;14.13;71.45
9746;BME280;4912;50.836;12.958;2023-05-07T07:17:38;98225.56;;;14.15;70.45
9746;BME280;4912;50.836;12.958;2023-05-07T07:20:08;98221.75;;;14.12;70.01
9746;BME280;4912;50.836;12.958;2023-05-07T07:22:42;98228.84;;;14.13;70.26
9746;BME280;4912;50.836;12.958;2023-05-07T07:25:13;98235.94;;;14.14;70.09
9746;BME280;4912;50.836;12.958;2023-05-07T07:27:44;98232.00;;;14.21;70.69
9746;BME280;4912;50.836;12.958;2023-05-07T07:30:17;98231.91;;;14.15;70.31
9746;BME280;4912;50.836;12.958;2023-05-07T07:32:48;98240.47;;;14.12;70.02
9746;BME280;4912;50.836;12.958;2023-05-07T07:35:19;98246.13;;;14.17;70.61
9746;BME280;4912;50.836;12.958;2023-05-07T07:37:52;98246.97;;;14.23;70.52
9746;BME280;4912;50.836;12.958;2023-05-07T07:40:22;98247.38;;;14.16;70.14
9746;BME280;4912;50.836;12.958;2023-05-07T07:42:53;98248.50;;;14.24;70.44
9746;BME280;4912;50.836;12.958;2023-05-07T07:45:26;98250.06;;;14.25;69.88
9746;BME280;4912;50.836;12.958;2023-05-07T07:47:57;98251.97;;;14.19;69.64
9746;BME280;4912;50.836;12.958;2023-05-07T07:50:29;98253.50;;;14.20;69.83
9746;BME280;4912;50.836;12.958;2023-05-07T07:53:14;98255.31;;;14.23;69.62
9746;BME280;4912;50.836;12.958;2023-05-07T07:55:44;98258.66;;;14.27;68.16
9746;BME280;4912;50.836;12.958;2023-05-07T07:58:18;98255.19;;;14.32;68.45
9746;BME280;4912;50.836;12.958;2023-05-07T08:00:52;98255.63;;;14.40;68.22
9746;BME280;4912;50.836;12.958;2023-05-07T08:03:23;98260.97;;;14.58;68.49
9746;BME280;4912;50.836;12.958;2023-05-07T08:05:57;98254.16;;;14.80;68.65
9746;BME280;4912;50.836;12.958;2023-05-07T08:08:29;98255.38;;;14.93;67.86
9746;BME280;4912;50.836;12.958;2023-05-07T08:10:59;98249.94;;;14.84;66.68
9746;BME280;4912;50.836;12.958;2023-05-07T08:13:32;98257.44;;;14.78;66.16
9746;BME280;4912;50.836;12.958;2023-05-07T08:16:05;98256.78;;;14.68;66.08
9746;BME280;4912;50.836;12.958;2023-05-07T08:18:36;98254.47;;;14.67;65.46
9746;BME280;4912;50.836;12.958;2023-05-07T08:21:07;98261.47;;;14.77;66.07
9746;BME280;4912;50.836;12.958;2023-05-07T08:23:38;98257.16;;;14.76;65.93
9746;BME280;4912;50.836;12.958;2023-05-07T08:26:08;98259.81;;;14.85;64.62
9746;BME280;4912;50.836;12.958;2023-05-07T08:28:39;98260.53;;;15.21;64.94
9746;BME280;4912;50.836;12.958;2023-05-07T08:31:12;98259.81;;;15.66;63.37
9746;BME280;4912;50.836;12.958;2023-05-07T08:33:44;98259.47;;;16.10;61.18
9746;BME280;4912;50.836;12.958;2023-05-07T08:36:14;98260.69;;;16.35;61.14
9746;BME280;4912;50.836;12.958;2023-05-07T08:38:46;98267.06;;;16.35;59.70
9746;BME280;4912;50.836;12.958;2023-05-07T08:41:16;98264.63;;;16.17;57.50
9746;BME280;4912;50.836;12.958;2023-05-07T08:43:47;98261.72;;;16.06;58.40
9746;BME280;4912;50.836;12.958;2023-05-07T08:46:22;98268.19;;;15.92;58.60
9746;BME280;4912;50.836;12.958;2023-05-07T08:48:55;98265.19;;;15.95;59.86
9746;BME280;4912;50.836;12.958;2023-05-07T08:51:26;98267.97;;;15.95;59.24
9746;BME280;4912;50.836;12.958;2023-05-07T08:53:56;98268.94;;;15.92;58.37
9746;BME280;4912;50.836;12.958;2023-05-07T08:56:31;98270.06;;;16.01;58.79
9746;BME280;4912;50.836;12.958;2023-05-07T08:59:01;98266.50;;;16.00;58.18
9746;BME280;4912;50.836;12.958;2023-05-07T09:01:34;98267.38;;;16.12;57.57
9746;BME280;4912;50.836;12.958;2023-05-07T09:04:05;98268.13;;;16.12;58.88
9746;BME280;4912;50.836;12.958;2023-05-07T09:06:37;98271.59;;;16.33;56.93
9746;BME280;4912;50.836;12.958;2023-05-07T09:09:10;98271.34;;;16.62;57.17
9746;BME280;4912;50.836;12.958;2023-05-07T09:11:44;98273.19;;;16.71;55.94
9746;BME280;4912;50.836;12.958;2023-05-07T09:14:18;98280.88;;;16.82;55.70
9746;BME280;4912;50.836;12.958;2023-05-07T09:16:54;98266.69;;;16.91;55.89
9746;BME280;4912;50.836;12.958;2023-05-07T09:19:25;98274.53;;;16.87;56.09
9746;BME280;4912;50.836;12.958;2023-05-07T09:22:00;98277.66;;;16.94;56.69
9746;BME280;4912;50.836;12.958;2023-05-07T09:24:40;98275.06;;;16.91;55.84
9746;BME280;4912;50.836;12.958;2023-05-07T09:27:10;98273.50;;;16.78;55.73
9746;BME280;4912;50.836;12.958;2023-05-07T09:29:43;98277.03;;;16.79;55.67
9746;BME280;4912;50.836;12.958;2023-05-07T09:32:22;98277.09;;;16.85;55.83
9746;BME280;4912;50.836;12.958;2023-05-07T09:34:54;98279.91;;;16.90;55.57
9746;BME280;4912;50.836;12.958;2023-05-07T09:37:26;98267.34;;;17.17;55.96
9746;BME280;4912;50.836;12.958;2023-05-07T09:39:56;98267.38;;;18.21;53.58
9746;BME280;4912;50.836;12.958;2023-05-07T09:42:29;98271.97;;;18.57;51.90
9746;BME280;4912;50.836;12.958;2023-05-07T09:45:02;98264.84;;;18.78;50.09
9746;BME280;4912;50.836;12.958;2023-05-07T09:47:41;98269.81;;;19.19;50.07
9746;BME280;4912;50.836;12.958;2023-05-07T09:50:16;98266.75;;;19.17;49.34
9746;BME280;4912;50.836;12.958;2023-05-07T09:52:47;98262.88;;;19.37;49.90
9746;BME280;4912;50.836;12.958;2023-05-07T09:55:18;98263.75;;;19.73;48.94
9746;BME280;4912;50.836;12.958;2023-05-07T09:57:49;98265.31;;;19.62;48.17
9746;BME280;4912;50.836;12.958;2023-05-07T10:00:21;98270.00;;;19.49;47.57
9746;BME280;4912;50.836;12.958;2023-05-07T10:03:02;98265.69;;;19.37;48.67
9746;BME280;4912;50.836;12.958;2023-05-07T10:05:43;98265.47;;;19.23;47.96
9746;BME280;4912;50.836;12.958;2023-05-07T10:08:17;98272.66;;;19.13;47.70
9746;BME280;4912;50.836;12.958;2023-05-07T10:10:54;98272.81;;;19.32;47.39
9746;BME280;4912;50.836;12.958;2023-05-07T10:13:27;98271.66;;;19.69;47.82
9746;BME280;4912;50.836;12.958;2023-05-07T10:15:58;98266.38;;;19.54;47.16
9746;BME280;4912;50.836;12.958;2023-05-07T10:18:41;98280.75;;;19.86;47.91
9746;BME280;4912;50.836;12.958;2023-05-07T10:21:18;98270.34;;;19.75;46.92
9746;BME280;4912;50.836;12.958;2023-05-07T10:23:53;98275.78;;;20.03;46.19
9746;BME280;4912;50.836;12.958;2023-05-07T10:26:31;98277.13;;;20.92;44.39
9746;BME280;4912;50.836;12.958;2023-05-07T10:29:03;98263.84;;;21.97;43.34
9746;BME280;4912;50.836;12.958;2023-05-07T10:31:48;98258.97;;;22.61;41.33
9746;BME280;4912;50.836;12.958;2023-05-07T10:34:27;98275.66;;;23.04;38.49
9746;BME280;4912;50.836;12.958;2023-05-07T10:37:13;98267.31;;;23.38;38.72
9746;BME280;4912;50.836;12.958;2023-05-07T10:39:44;98260.50;;;23.81;38.04
9746;BME280;4912;50.836;12.958;2023-05-07T10:42:15;98260.59;;;24.64;37.28
9746;BME280;4912;50.836;12.958;2023-05-07T10:44:49;98258.19;;;24.68;37.20
9746;BME280;4912;50.836;12.958;2023-05-07T10:47:24;98263.94;;;25.04;37.02
9746;BME280;4912;50.836;12.958;2023-05-07T10:53:20;98261.13;;;25.76;34.91
9746;BME280;4912;50.836;12.958;2023-05-07T11:02:17;98244.44;;;27.22;32.18
9746;BME280;4912;50.836;12.958;2023-05-07T11:08:15;98232.88;;;27.83;32.34
9746;BME280;4912;50.836;12.958;2023-05-07T11:10:55;98235.84;;;27.92;31.41
9746;BME280;4912;50.836;12.958;2023-05-07T11:13:41;98234.44;;;27.76;30.53
9746;BME280;4912;50.836;12.958;2023-05-07T11:16:33;98239.97;;;28.06;31.03
9746;BME280;4912;50.836;12.958;2023-05-07T11:19:14;98237.16;;;27.59;30.12
9746;BME280;4912;50.836;12.958;2023-05-07T11:21:48;98230.75;;;27.43;30.76
9746;BME280;4912;50.836;12.958;2023-05-07T11:24:40;98231.56;;;27.84;31.11
9746;BME280;4912;50.836;12.958;2023-05-07T11:27:13;98237.47;;;27.78;31.41
9746;BME280;4912;50.836;12.958;2023-05-07T11:29:46;98236.34;;;28.14;30.30
9746;BME280;4912;50.836;12.958;2023-05-07T11:32:21;98231.16;;;28.69;29.72
9746;BME280;4912;50.836;12.958;2023-05-07T11:34:53;98229.78;;;29.20;28.91
9746;BME280;4912;50.836;12.958;2023-05-07T11:37:24;98233.06;;;29.51;29.14
9746;BME280;4912;50.836;12.958;2023-05-07T11:40:07;98227.84;;;29.74;28.40
9746;BME280;4912;50.836;12.958;2023-05-07T11:42:41;98228.31;;;29.80;27.98
9746;BME280;4912;50.836;12.958;2023-05-07T11:45:11;98233.56;;;30.01;27.69
9746;BME280;4912;50.836;12.958;2023-05-07T11:47:41;98241.72;;;29.87;27.49
9746;BME280;4912;50.836;12.958;2023-05-07T11:50:15;98238.81;;;29.78;28.15
9746;BME280;4912;50.836;12.958;2023-05-07T11:52:50;98239.34;;;29.66;27.56
9746;BME280;4912;50.836;12.958;2023-05-07T11:55:23;98235.69;;;29.83;27.63
9746;BME280;4912;50.836;12.958;2023-05-07T11:57:54;98229.84;;;30.35;26.89
9746;BME280;4912;50.836;12.958;2023-05-07T12:00:24;98234.06;;;30.07;26.74
9746;BME280;4912;50.836;12.958;2023-05-07T12:02:54;98232.63;;;30.16;26.83
9746;BME280;4912;50.836;12.958;2023-05-07T12:05:25;98238.00;;;30.11;27.07
9746;BME280;4912;50.836;12.958;2023-05-07T12:07:56;98238.28;;;30.42;26.61
9746;BME280;4912;50.836;12.958;2023-05-07T12:10:29;98237.56;;;30.88;25.84
9746;BME280;4912;50.836;12.958;2023-05-07T12:12:59;98236.97;;;30.99;25.41
9746;BME280;4912;50.836;12.958;2023-05-07T12:15:30;98236.97;;;30.99;25.45
9746;BME280;4912;50.836;12.958;2023-05-07T12:18:00;98221.56;;;31.50;25.36
9746;BME280;4912;50.836;12.958;2023-05-07T12:20:31;98230.41;;;31.83;25.08
9746;BME280;4912;50.836;12.958;2023-05-07T12:23:01;98223.38;;;31.65;24.33
9746;BME280;4912;50.836;12.958;2023-05-07T12:25:35;98221.25;;;31.85;24.29
9746;BME280;4912;50.836;12.958;2023-05-07T12:28:12;98228.09;;;32.20;24.78
9746;BME280;4912;50.836;12.958;2023-05-07T12:30:43;98211.53;;;32.19;24.16
9746;BME280;4912;50.836;12.958;2023-05-07T12:33:16;98219.69;;;31.93;24.37
9746;BME280;4912;50.836;12.958;2023-05-07T12:35:48;98215.38;;;31.63;24.69
9746;BME280;4912;50.836;12.958;2023-05-07T12:38:18;98228.22;;;30.87;25.85
9746;BME280;4912;50.836;12.958;2023-05-07T12:40:53;98227.84;;;30.55;25.85
9746;BME280;4912;50.836;12.958;2023-05-07T12:43:24;98228.69;;;30.47;26.65
9746;BME280;4912;50.836;12.958;2023-05-07T12:45:56;98224.84;;;29.99;26.63
9746;BME280;4912;50.836;12.958;2023-05-07T12:48:26;98222.34;;;29.42;27.30
9746;BME280;4912;50.836;12.958;2023-05-07T12:50:57;98227.13;;;29.56;28.09
9746;BME280;4912;50.836;12.958;2023-05-07T12:53:29;98221.63;;;30.12;27.14
9746;BME280;4912;50.836;12.958;2023-05-07T12:56:02;98221.41;;;30.27;26.58
9746;BME280;4912;50.836;12.958;2023-05-07T12:58:35;98216.44;;;30.64;26.76
9746;BME280;4912;50.836;12.958;2023-05-07T13:01:07;98217.47;;;30.49;26.91
9746;BME280;4912;50.836;12.958;2023-05-07T13:03:43;98219.88;;;29.99;26.48
9746;BME280;4912;50.836;12.958;2023-05-07T13:06:18;98222.88;;;29.57;26.22
9746;BME280;4912;50.836;12.958;2023-05-07T13:08:48;98228.84;;;29.52;27.16
9746;BME280;4912;50.836;12.958;2023-05-07T13:11:21;98227.41;;;29.78;26.72
9746;BME280;4912;50.836;12.958;2023-05-07T13:13:52;98219.34;;;29.84;26.57
9746;BME280;4912;50.836;12.958;2023-05-07T13:16:22;98225.16;;;30.57;26.22
9746;BME280;4912;50.836;12.958;2023-05-07T13:18:52;98223.13;;;30.86;25.28
9746;BME280;4912;50.836;12.958;2023-05-07T13:21:23;98218.69;;;31.41;25.78
9746;BME280;4912;50.836;12.958;2023-05-07T13:23:53;98219.31;;;31.39;24.52
9746;BME280;4912;50.836;12.958;2023-05-07T13:26:27;98211.47;;;31.20;24.81
9746;BME280;4912;50.836;12.958;2023-05-07T13:28:59;98209.19;;;31.19;25.02
9746;BME280;4912;50.836;12.958;2023-05-07T13:31:29;98209.38;;;31.69;25.02
9746;BME280;4912;50.836;12.958;2023-05-07T13:34:00;98205.78;;;32.19;24.66
9746;BME280;4912;50.836;12.958;2023-05-07T13:36:30;98209.38;;;32.69;24.28
9746;BME280;4912;50.836;12.958;2023-05-07T13:39:03;98201.16;;;32.75;22.46
9746;BME280;4912;50.836;12.958;2023-05-07T13:41:37;98200.66;;;33.10;22.45
9746;BME280;4912;50.836;12.958;2023-05-07T13:44:07;98197.66;;;32.56;22.63
9746;BME280;4912;50.836;12.958;2023-05-07T13:46:37;98201.06;;;32.73;23.97
9746;BME280;4912;50.836;12.958;2023-05-07T13:49:07;98196.69;;;32.93;23.64
9746;BME280;4912;50.836;12.958;2023-05-07T13:51:39;98194.91;;;32.67;23.11